Marlton, Manitoba

7:59 PM CST on November 15, 2019 (GMT -0600)
Winnipeg Roblin Park Speyside | | Change Station

Elev 778 ft 49.86 °N, 97.30 °W | Updated 12 seconds ago

Overcast
Overcast
25.2 °F
Feels Like 17 °F
N
7
Wind Variable Wind from SSE
Gusts 9.0 mph

Today
High -- | Low -- °F
--% Chance of Precip.
Yesterday
High -- | Low -- °F
Precip. -- in
Pressure 30.23 in
Visibility 15.0 miles
Clouds Mostly Cloudy 2600 ft
Mostly Cloudy 15000 ft
Windchill 17 °F
Dew Point 18 °F
Humidity 75%
Rainfall 0.00 in
Snow Depth Not available.
7:41 AM 4:45 PM
Waning Gibbous, 87% visible
METAR CYWG 160100Z 15015KT 15SM BKN026 BKN150 M04/M10 A3017 RMK SC5AC2 SLP235
Pressure 30.23 in
Visibility 15.0 miles
Clouds Mostly Cloudy 2600 ft
Mostly Cloudy 15000 ft
Windchill 17 °F
Dew Point 18 °F
Humidity 75%
Rainfall 0.00 in
Snow Depth Not available.
7:41 AM 4:45 PM
Waning Gibbous, 87% visible
METAR CYWG 160100Z 15015KT 15SM BKN026 BKN150 M04/M10 A3017 RMK SC5AC2 SLP235

Get Severe Weather Alerts

Thanks for signing up!

Be on the lookout for a verification email in your inbox.

You'll start receiving the daily forecast at 6 AM.

×

10-Day Weather Forecast

Almanac

Astronomy

Nov. 15, 2019 Rise Set
Actual Time
Civil Twilight
Nautical Twilight
Astronomical Twilight
Moon
Length of Visible Light
Length of Day
Tomorrow will be .
, % of the Moon is Illuminated

Today's Extremes

Country Highs Country Lows

Community

WunderPhotos

Category 6

Welcome to Category 6. This is the collective home for Weather Underground's featured writeups by Dr. Jeff Masters (right), Bob Henson (left), Chris Burt, and other regular contributors.

Nearby

Air Quality

  Air Quality AQ Index Pollutant
Not available.

Snow Depth

Station Depth Elevation

Earthquake Activity

City Distance Mag. Time & Date
Minimum magnitude displayed is 2.5.

Coastal Water Temperatures

Place Temperature

Stations

Nearby Weather Stations

Station Location Temp. Windchill Dew Point Humidity Wind Precip. Elev Updated Type
                   

Watches & Warnings

There are currently no watches in effect.